sensor_id;sensor_type;location;lat;lon;timestamp;P1;durP1;ratioP1;P2;durP2;ratioP2
4676;SDS011;2352;48.180;11.478;2023-03-01T00:01:11;18.13;;;16.53;;
4676;SDS011;2352;48.180;11.478;2023-03-01T00:04:20;18.03;;;16.17;;
4676;SDS011;2352;48.180;11.478;2023-03-01T00:07:23;17.93;;;16.23;;
4676;SDS011;2352;48.180;11.478;2023-03-01T00:10:26;17.47;;;15.73;;
4676;SDS011;2352;48.180;11.478;2023-03-01T00:13:28;18.17;;;16.27;;
4676;SDS011;2352;48.180;11.478;2023-03-01T00:16:32;18.20;;;16.40;;
4676;SDS011;2352;48.180;11.478;2023-03-01T00:19:38;16.57;;;15.07;;
4676;SDS011;2352;48.180;11.478;2023-03-01T00:22:41;18.50;;;15.17;;
4676;SDS011;2352;48.180;11.478;2023-03-01T00:25:44;18.43;;;15.73;;
4676;SDS011;2352;48.180;11.478;2023-03-01T00:28:47;17.63;;;15.60;;
4676;SDS011;2352;48.180;11.478;2023-03-01T00:31:50;18.47;;;16.63;;
4676;SDS011;2352;48.180;11.478;2023-03-01T00:34:55;19.50;;;16.67;;
4676;SDS011;2352;48.180;11.478;2023-03-01T00:37:58;19.70;;;17.03;;
4676;SDS011;2352;48.180;11.478;2023-03-01T00:41:02;16.87;;;15.07;;
4676;SDS011;2352;48.180;11.478;2023-03-01T00:44:07;17.87;;;16.07;;
4676;SDS011;2352;48.180;11.478;2023-03-01T00:47:11;16.43;;;14.73;;
4676;SDS011;2352;48.180;11.478;2023-03-01T00:50:16;20.37;;;16.23;;
4676;SDS011;2352;48.180;11.478;2023-03-01T00:53:20;18.33;;;16.63;;
4676;SDS011;2352;48.180;11.478;2023-03-01T00:56:23;17.67;;;15.70;;
4676;SDS011;2352;48.180;11.478;2023-03-01T00:59:27;16.87;;;15.27;;
4676;SDS011;2352;48.180;11.478;2023-03-01T01:02:31;19.17;;;16.80;;
4676;SDS011;2352;48.180;11.478;2023-03-01T01:05:36;17.50;;;15.57;;
4676;SDS011;2352;48.180;11.478;2023-03-01T01:08:39;19.23;;;16.60;;
4676;SDS011;2352;48.180;11.478;2023-03-01T01:11:42;17.53;;;15.60;;
4676;SDS011;2352;48.180;11.478;2023-03-01T01:14:45;19.40;;;15.97;;
4676;SDS011;2352;48.180;11.478;2023-03-01T01:17:48;16.90;;;15.20;;
4676;SDS011;2352;48.180;11.478;2023-03-01T01:20:53;16.57;;;15.07;;
4676;SDS011;2352;48.180;11.478;2023-03-01T01:23:56;17.23;;;15.07;;
4676;SDS011;2352;48.180;11.478;2023-03-01T01:26:59;17.40;;;15.70;;
4676;SDS011;2352;48.180;11.478;2023-03-01T01:30:02;18.27;;;16.13;;
4676;SDS011;2352;48.180;11.478;2023-03-01T01:33:06;18.53;;;15.63;;
4676;SDS011;2352;48.180;11.478;2023-03-01T01:36:10;16.50;;;14.83;;
4676;SDS011;2352;48.180;11.478;2023-03-01T01:39:14;18.87;;;15.43;;
4676;SDS011;2352;48.180;11.478;2023-03-01T01:42:17;18.70;;;16.17;;
4676;SDS011;2352;48.180;11.478;2023-03-01T01:45:26;17.67;;;15.87;;
4676;SDS011;2352;48.180;11.478;2023-03-01T01:48:34;17.00;;;15.27;;
4676;SDS011;2352;48.180;11.478;2023-03-01T01:51:44;19.87;;;16.40;;
4676;SDS011;2352;48.180;11.478;2023-03-01T01:54:51;16.07;;;14.57;;
4676;SDS011;2352;48.180;11.478;2023-03-01T01:57:59;16.93;;;15.10;;
4676;SDS011;2352;48.180;11.478;2023-03-01T02:01:05;17.03;;;15.37;;
4676;SDS011;2352;48.180;11.478;2023-03-01T02:04:09;20.63;;;17.37;;
4676;SDS011;2352;48.180;11.478;2023-03-01T02:07:15;16.43;;;15.03;;
4676;SDS011;2352;48.180;11.478;2023-03-01T02:10:19;18.03;;;15.80;;
4676;SDS011;2352;48.180;11.478;2023-03-01T02:13:23;18.23;;;16.27;;
4676;SDS011;2352;48.180;11.478;2023-03-01T02:16:26;18.47;;;15.93;;
4676;SDS011;2352;48.180;11.478;2023-03-01T02:19:34;19.47;;;15.40;;
4676;SDS011;2352;48.180;11.478;2023-03-01T02:22:44;18.27;;;16.23;;
4676;SDS011;2352;48.180;11.478;2023-03-01T02:25:51;17.37;;;15.53;;
4676;SDS011;2352;48.180;11.478;2023-03-01T02:28:59;18.50;;;16.60;;
4676;SDS011;2352;48.180;11.478;2023-03-01T02:32:02;18.40;;;16.47;;
4676;SDS011;2352;48.180;11.478;2023-03-01T02:35:08;16.83;;;14.87;;
4676;SDS011;2352;48.180;11.478;2023-03-01T02:38:12;17.23;;;15.43;;
4676;SDS011;2352;48.180;11.478;2023-03-01T02:41:16;18.73;;;15.00;;
4676;SDS011;2352;48.180;11.478;2023-03-01T02:44:22;18.43;;;16.63;;
4676;SDS011;2352;48.180;11.478;2023-03-01T02:47:25;16.50;;;15.00;;
4676;SDS011;2352;48.180;11.478;2023-03-01T02:50:37;16.60;;;15.13;;
4676;SDS011;2352;48.180;11.478;2023-03-01T02:53:55;17.27;;;15.47;;
4676;SDS011;2352;48.180;11.478;2023-03-01T02:57:06;20.90;;;16.83;;
4676;SDS011;2352;48.180;11.478;2023-03-01T03:00:12;16.20;;;14.80;;
4676;SDS011;2352;48.180;11.478;2023-03-01T03:03:20;16.90;;;15.23;;
4676;SDS011;2352;48.180;11.478;2023-03-01T03:06:24;16.00;;;14.50;;
4676;SDS011;2352;48.180;11.478;2023-03-01T03:09:27;17.13;;;15.63;;
4676;SDS011;2352;48.180;11.478;2023-03-01T03:12:30;18.23;;;16.30;;
4676;SDS011;2352;48.180;11.478;2023-03-01T03:15:35;19.23;;;17.07;;
4676;SDS011;2352;48.180;11.478;2023-03-01T03:18:39;18.30;;;16.60;;
4676;SDS011;2352;48.180;11.478;2023-03-01T03:21:42;19.83;;;17.80;;
4676;SDS011;2352;48.180;11.478;2023-03-01T03:24:45;16.83;;;15.27;;
4676;SDS011;2352;48.180;11.478;2023-03-01T03:27:49;17.00;;;15.57;;
4676;SDS011;2352;48.180;11.478;2023-03-01T03:30:59;17.43;;;15.77;;
4676;SDS011;2352;48.180;11.478;2023-03-01T03:34:04;18.10;;;15.83;;
4676;SDS011;2352;48.180;11.478;2023-03-01T03:37:07;16.17;;;14.47;;
4676;SDS011;2352;48.180;11.478;2023-03-01T03:40:31;19.47;;;15.90;;
4676;SDS011;2352;48.180;11.478;2023-03-01T03:43:36;17.37;;;15.73;;
4676;SDS011;2352;48.180;11.478;2023-03-01T03:46:42;17.80;;;15.83;;
4676;SDS011;2352;48.180;11.478;2023-03-01T03:49:45;16.43;;;14.83;;
4676;SDS011;2352;48.180;11.478;2023-03-01T03:52:47;20.23;;;16.33;;
4676;SDS011;2352;48.180;11.478;2023-03-01T03:55:51;18.87;;;16.97;;
4676;SDS011;2352;48.180;11.478;2023-03-01T03:58:54;19.33;;;17.20;;
4676;SDS011;2352;48.180;11.478;2023-03-01T04:01:58;18.07;;;16.20;;
4676;SDS011;2352;48.180;11.478;2023-03-01T04:05:01;18.93;;;17.10;;
4676;SDS011;2352;48.180;11.478;2023-03-01T04:08:04;19.70;;;17.57;;
4676;SDS011;2352;48.180;11.478;2023-03-01T04:11:09;17.63;;;15.87;;
4676;SDS011;2352;48.180;11.478;2023-03-01T04:14:30;17.97;;;16.23;;
4676;SDS011;2352;48.180;11.478;2023-03-01T04:17:34;18.33;;;16.20;;
4676;SDS011;2352;48.180;11.478;2023-03-01T04:20:37;18.43;;;16.63;;
4676;SDS011;2352;48.180;11.478;2023-03-01T04:23:40;19.13;;;17.13;;
4676;SDS011;2352;48.180;11.478;2023-03-01T04:26:43;20.00;;;17.90;;
4676;SDS011;2352;48.180;11.478;2023-03-01T04:29:47;16.40;;;14.77;;
4676;SDS011;2352;48.180;11.478;2023-03-01T04:32:51;18.13;;;16.30;;
4676;SDS011;2352;48.180;11.478;2023-03-01T04:35:54;19.13;;;16.60;;
4676;SDS011;2352;48.180;11.478;2023-03-01T04:38:58;19.03;;;16.97;;
4676;SDS011;2352;48.180;11.478;2023-03-01T04:42:13;18.37;;;16.40;;
4676;SDS011;2352;48.180;11.478;2023-03-01T04:45:16;16.80;;;15.23;;
4676;SDS011;2352;48.180;11.478;2023-03-01T04:48:20;18.70;;;16.47;;
4676;SDS011;2352;48.180;11.478;2023-03-01T04:51:23;16.30;;;14.77;;
4676;SDS011;2352;48.180;11.478;2023-03-01T04:54:26;24.53;;;18.43;;
4676;SDS011;2352;48.180;11.478;2023-03-01T04:57:29;18.03;;;16.17;;
4676;SDS011;2352;48.180;11.478;2023-03-01T05:00:32;17.70;;;15.97;;
4676;SDS011;2352;48.180;11.478;2023-03-01T05:03:36;17.77;;;15.93;;
4676;SDS011;2352;48.180;11.478;2023-03-01T05:06:39;17.53;;;15.73;;
4676;SDS011;2352;48.180;11.478;2023-03-01T05:09:42;17.77;;;15.17;;
4676;SDS011;2352;48.180;11.478;2023-03-01T05:12:45;19.63;;;16.33;;
4676;SDS011;2352;48.180;11.478;2023-03-01T05:15:53;17.20;;;15.67;;
4676;SDS011;2352;48.180;11.478;2023-03-01T05:18:59;17.60;;;15.70;;
4676;SDS011;2352;48.180;11.478;2023-03-01T05:22:02;19.67;;;17.70;;
4676;SDS011;2352;48.180;11.478;2023-03-01T05:25:06;19.07;;;17.07;;
4676;SDS011;2352;48.180;11.478;2023-03-01T05:28:10;20.10;;;16.90;;
4676;SDS011;2352;48.180;11.478;2023-03-01T05:31:13;17.77;;;16.00;;
4676;SDS011;2352;48.180;11.478;2023-03-01T05:34:18;19.50;;;17.53;;
4676;SDS011;2352;48.180;11.478;2023-03-01T05:37:23;18.90;;;17.03;;
4676;SDS011;2352;48.180;11.478;2023-03-01T05:40:26;18.17;;;16.40;;
4676;SDS011;2352;48.180;11.478;2023-03-01T05:43:30;18.10;;;16.27;;
4676;SDS011;2352;48.180;11.478;2023-03-01T05:46:35;20.33;;;17.13;;
4676;SDS011;2352;48.180;11.478;2023-03-01T05:49:39;18.70;;;16.80;;
4676;SDS011;2352;48.180;11.478;2023-03-01T05:52:42;17.87;;;16.07;;
4676;SDS011;2352;48.180;11.478;2023-03-01T05:55:45;17.30;;;15.60;;
4676;SDS011;2352;48.180;11.478;2023-03-01T05:58:48;21.23;;;17.40;;
4676;SDS011;2352;48.180;11.478;2023-03-01T06:01:51;17.47;;;15.67;;
4676;SDS011;2352;48.180;11.478;2023-03-01T06:04:56;18.27;;;16.37;;
4676;SDS011;2352;48.180;11.478;2023-03-01T06:07:59;20.93;;;15.97;;
4676;SDS011;2352;48.180;11.478;2023-03-01T06:11:03;19.63;;;16.60;;
4676;SDS011;2352;48.180;11.478;2023-03-01T06:14:07;18.10;;;16.07;;
4676;SDS011;2352;48.180;11.478;2023-03-01T06:17:11;20.27;;;18.27;;
4676;SDS011;2352;48.180;11.478;2023-03-01T06:20:16;18.60;;;16.60;;
4676;SDS011;2352;48.180;11.478;2023-03-01T06:23:21;20.20;;;18.10;;
4676;SDS011;2352;48.180;11.478;2023-03-01T06:26:24;18.43;;;16.47;;
4676;SDS011;2352;48.180;11.478;2023-03-01T06:29:27;19.43;;;16.73;;
4676;SDS011;2352;48.180;11.478;2023-03-01T06:32:29;18.57;;;16.67;;
4676;SDS011;2352;48.180;11.478;2023-03-01T06:35:34;20.93;;;17.00;;
4676;SDS011;2352;48.180;11.478;2023-03-01T06:38:37;23.30;;;18.00;;
4676;SDS011;2352;48.180;11.478;2023-03-01T06:41:41;20.30;;;18.17;;
4676;SDS011;2352;48.180;11.478;2023-03-01T06:44:44;23.53;;;17.07;;
4676;SDS011;2352;48.180;11.478;2023-03-01T06:47:48;19.73;;;17.63;;
4676;SDS011;2352;48.180;11.478;2023-03-01T06:50:52;18.33;;;16.03;;
4676;SDS011;2352;48.180;11.478;2023-03-01T06:53:55;27.90;;;17.77;;
4676;SDS011;2352;48.180;11.478;2023-03-01T06:57:00;22.00;;;17.83;;
4676;SDS011;2352;48.180;11.478;2023-03-01T07:00:04;20.67;;;17.27;;
4676;SDS011;2352;48.180;11.478;2023-03-01T07:03:08;17.73;;;15.83;;
4676;SDS011;2352;48.180;11.478;2023-03-01T07:06:12;19.53;;;17.43;;
4676;SDS011;2352;48.180;11.478;2023-03-01T07:09:15;19.97;;;17.83;;
4676;SDS011;2352;48.180;11.478;2023-03-01T07:12:20;19.10;;;16.83;;
4676;SDS011;2352;48.180;11.478;2023-03-01T07:15:24;18.17;;;16.23;;
4676;SDS011;2352;48.180;11.478;2023-03-01T07:18:27;19.30;;;17.13;;
4676;SDS011;2352;48.180;11.478;2023-03-01T07:21:31;19.03;;;17.00;;
4676;SDS011;2352;48.180;11.478;2023-03-01T07:24:34;19.93;;;17.77;;
4676;SDS011;2352;48.180;11.478;2023-03-01T07:27:37;21.53;;;18.37;;
4676;SDS011;2352;48.180;11.478;2023-03-01T07:30:40;18.43;;;16.17;;
4676;SDS011;2352;48.180;11.478;2023-03-01T07:33:43;19.07;;;17.17;;
4676;SDS011;2352;48.180;11.478;2023-03-01T07:36:47;18.80;;;16.80;;
4676;SDS011;2352;48.180;11.478;2023-03-01T07:39:50;18.43;;;16.50;;
4676;SDS011;2352;48.180;11.478;2023-03-01T07:42:55;18.70;;;16.70;;
4676;SDS011;2352;48.180;11.478;2023-03-01T07:45:59;19.10;;;17.10;;
4676;SDS011;2352;48.180;11.478;2023-03-01T07:49:02;22.83;;;18.33;;
4676;SDS011;2352;48.180;11.478;2023-03-01T07:52:07;22.83;;;17.27;;
4676;SDS011;2352;48.180;11.478;2023-03-01T07:55:13;20.00;;;17.10;;
4676;SDS011;2352;48.180;11.478;2023-03-01T07:58:16;18.90;;;17.00;;
4676;SDS011;2352;48.180;11.478;2023-03-01T08:01:20;20.87;;;17.37;;
4676;SDS011;2352;48.180;11.478;2023-03-01T08:04:23;17.87;;;15.90;;
4676;SDS011;2352;48.180;11.478;2023-03-01T08:07:29;27.93;;;18.53;;
4676;SDS011;2352;48.180;11.478;2023-03-01T08:10:32;21.47;;;17.70;;
4676;SDS011;2352;48.180;11.478;2023-03-01T08:13:35;21.23;;;18.50;;
4676;SDS011;2352;48.180;11.478;2023-03-01T08:16:38;25.77;;;18.30;;
4676;SDS011;2352;48.180;11.478;2023-03-01T08:19:42;20.23;;;17.83;;
4676;SDS011;2352;48.180;11.478;2023-03-01T08:22:46;26.90;;;18.87;;
4676;SDS011;2352;48.180;11.478;2023-03-01T08:25:49;23.97;;;18.63;;
4676;SDS011;2352;48.180;11.478;2023-03-01T08:28:52;25.43;;;17.83;;
4676;SDS011;2352;48.180;11.478;2023-03-01T08:31:55;21.53;;;17.67;;
4676;SDS011;2352;48.180;11.478;2023-03-01T08:34:58;19.93;;;17.80;;
4676;SDS011;2352;48.180;11.478;2023-03-01T08:38:02;21.30;;;18.90;;
4676;SDS011;2352;48.180;11.478;2023-03-01T08:41:05;19.40;;;17.37;;
4676;SDS011;2352;48.180;11.478;2023-03-01T08:44:09;24.63;;;18.33;;
4676;SDS011;2352;48.180;11.478;2023-03-01T08:47:12;22.93;;;19.00;;
4676;SDS011;2352;48.180;11.478;2023-03-01T08:50:16;19.17;;;16.77;;
4676;SDS011;2352;48.180;11.478;2023-03-01T08:53:20;23.83;;;17.60;;
4676;SDS011;2352;48.180;11.478;2023-03-01T08:56:23;21.53;;;18.83;;
4676;SDS011;2352;48.180;11.478;2023-03-01T08:59:26;20.10;;;17.97;;
4676;SDS011;2352;48.180;11.478;2023-03-01T09:02:30;22.70;;;18.63;;
4676;SDS011;2352;48.180;11.478;2023-03-01T09:05:33;23.30;;;18.87;;
4676;SDS011;2352;48.180;11.478;2023-03-01T09:08:40;22.00;;;19.00;;
4676;SDS011;2352;48.180;11.478;2023-03-01T09:11:44;21.03;;;18.77;;
4676;SDS011;2352;48.180;11.478;2023-03-01T09:14:48;21.57;;;18.03;;
4676;SDS011;2352;48.180;11.478;2023-03-01T09:17:50;20.33;;;17.63;;
4676;SDS011;2352;48.180;11.478;2023-03-01T09:21:00;26.77;;;19.17;;
4676;SDS011;2352;48.180;11.478;2023-03-01T09:24:05;23.53;;;19.13;;
4676;SDS011;2352;48.180;11.478;2023-03-01T09:27:08;21.67;;;19.30;;
4676;SDS011;2352;48.180;11.478;2023-03-01T09:30:11;22.40;;;17.67;;
4676;SDS011;2352;48.180;11.478;2023-03-01T09:33:15;20.03;;;17.37;;
4676;SDS011;2352;48.180;11.478;2023-03-01T09:36:20;23.23;;;18.93;;
4676;SDS011;2352;48.180;11.478;2023-03-01T09:39:26;21.27;;;18.63;;
4676;SDS011;2352;48.180;11.478;2023-03-01T09:42:29;25.57;;;19.73;;
4676;SDS011;2352;48.180;11.478;2023-03-01T09:45:36;22.63;;;19.37;;
4676;SDS011;2352;48.180;11.478;2023-03-01T09:48:44;19.63;;;17.57;;
4676;SDS011;2352;48.180;11.478;2023-03-01T09:51:55;21.87;;;18.37;;
4676;SDS011;2352;48.180;11.478;2023-03-01T09:55:10;22.37;;;17.87;;
4676;SDS011;2352;48.180;11.478;2023-03-01T09:58:23;24.47;;;19.17;;
4676;SDS011;2352;48.180;11.478;2023-03-01T10:01:34;20.57;;;18.33;;
4676;SDS011;2352;48.180;11.478;2023-03-01T10:04:42;18.67;;;16.50;;
4676;SDS011;2352;48.180;11.478;2023-03-01T10:07:51;19.83;;;16.23;;
4676;SDS011;2352;48.180;11.478;2023-03-01T10:11:02;19.17;;;16.97;;
4676;SDS011;2352;48.180;11.478;2023-03-01T10:14:07;19.23;;;16.23;;
4676;SDS011;2352;48.180;11.478;2023-03-01T10:17:33;26.00;;;18.87;;
4676;SDS011;2352;48.180;11.478;2023-03-01T10:20:42;21.20;;;19.00;;
4676;SDS011;2352;48.180;11.478;2023-03-01T10:23:49;21.17;;;18.50;;
4676;SDS011;2352;48.180;11.478;2023-03-01T10:26:55;23.60;;;19.20;;
4676;SDS011;2352;48.180;11.478;2023-03-01T10:30:03;21.40;;;19.00;;
4676;SDS011;2352;48.180;11.478;2023-03-01T10:33:14;24.63;;;19.23;;
4676;SDS011;2352;48.180;11.478;2023-03-01T10:36:20;20.37;;;18.30;;
4676;SDS011;2352;48.180;11.478;2023-03-01T10:39:24;20.87;;;17.77;;
4676;SDS011;2352;48.180;11.478;2023-03-01T10:42:30;31.37;;;21.07;;
4676;SDS011;2352;48.180;11.478;2023-03-01T10:45:35;18.83;;;16.93;;
4676;SDS011;2352;48.180;11.478;2023-03-01T10:48:39;21.10;;;18.83;;
4676;SDS011;2352;48.180;11.478;2023-03-01T10:51:42;21.33;;;18.93;;
4676;SDS011;2352;48.180;11.478;2023-03-01T10:54:51;20.00;;;17.90;;
4676;SDS011;2352;48.180;11.478;2023-03-01T10:58:16;20.77;;;17.90;;
4676;SDS011;2352;48.180;11.478;2023-03-01T11:01:24;24.67;;;19.20;;
4676;SDS011;2352;48.180;11.478;2023-03-01T11:04:36;21.37;;;17.90;;
4676;SDS011;2352;48.180;11.478;2023-03-01T11:07:46;22.97;;;19.47;;
4676;SDS011;2352;48.180;11.478;2023-03-01T11:10:50;23.67;;;19.27;;
4676;SDS011;2352;48.180;11.478;2023-03-01T11:13:58;21.90;;;19.00;;
4676;SDS011;2352;48.180;11.478;2023-03-01T11:17:12;21.23;;;19.13;;
4676;SDS011;2352;48.180;11.478;2023-03-01T11:20:20;23.93;;;19.13;;
4676;SDS011;2352;48.180;11.478;2023-03-01T11:23:30;20.70;;;18.23;;
4676;SDS011;2352;48.180;11.478;2023-03-01T11:26:34;20.93;;;16.17;;
4676;SDS011;2352;48.180;11.478;2023-03-01T11:29:42;20.17;;;17.17;;
4676;SDS011;2352;48.180;11.478;2023-03-01T11:32:50;21.20;;;19.03;;
4676;SDS011;2352;48.180;11.478;2023-03-01T11:36:01;18.67;;;16.77;;
4676;SDS011;2352;48.180;11.478;2023-03-01T11:39:12;20.87;;;17.67;;
4676;SDS011;2352;48.180;11.478;2023-03-01T11:42:25;19.80;;;17.73;;
4676;SDS011;2352;48.180;11.478;2023-03-01T11:45:42;19.87;;;18.13;;
4676;SDS011;2352;48.180;11.478;2023-03-01T11:48:57;21.10;;;18.30;;
4676;SDS011;2352;48.180;11.478;2023-03-01T11:52:09;22.60;;;18.87;;
4676;SDS011;2352;48.180;11.478;2023-03-01T11:55:30;21.23;;;18.93;;
4676;SDS011;2352;48.180;11.478;2023-03-01T12:02:48;20.17;;;18.10;;
4676;SDS011;2352;48.180;11.478;2023-03-01T12:06:23;22.23;;;17.30;;
4676;SDS011;2352;48.180;11.478;2023-03-01T12:09:38;19.63;;;17.57;;
4676;SDS011;2352;48.180;11.478;2023-03-01T12:12:57;20.87;;;18.63;;
4676;SDS011;2352;48.180;11.478;2023-03-01T12:16:22;19.67;;;17.23;;
4676;SDS011;2352;48.180;11.478;2023-03-01T12:19:45;20.17;;;18.00;;
4676;SDS011;2352;48.180;11.478;2023-03-01T12:23:05;21.70;;;19.50;;
4676;SDS011;2352;48.180;11.478;2023-03-01T12:26:26;18.40;;;16.43;;
4676;SDS011;2352;48.180;11.478;2023-03-01T12:29:34;20.97;;;17.57;;
4676;SDS011;2352;48.180;11.478;2023-03-01T12:32:44;19.23;;;17.23;;
4676;SDS011;2352;48.180;11.478;2023-03-01T12:36:09;20.83;;;18.67;;
4676;SDS011;2352;48.180;11.478;2023-03-01T12:39:35;19.27;;;17.27;;
4676;SDS011;2352;48.180;11.478;2023-03-01T12:42:48;21.20;;;18.97;;
4676;SDS011;2352;48.180;11.478;2023-03-01T12:46:04;19.03;;;17.03;;
4676;SDS011;2352;48.180;11.478;2023-03-01T12:49:24;20.23;;;17.33;;
4676;SDS011;2352;48.180;11.478;2023-03-01T12:52:35;21.27;;;16.70;;
4676;SDS011;2352;48.180;11.478;2023-03-01T12:55:43;20.17;;;18.00;;
4676;SDS011;2352;48.180;11.478;2023-03-01T12:58:49;19.90;;;17.37;;
4676;SDS011;2352;48.180;11.478;2023-03-01T13:02:02;20.30;;;18.20;;
4676;SDS011;2352;48.180;11.478;2023-03-01T13:05:17;20.27;;;18.23;;
4676;SDS011;2352;48.180;11.478;2023-03-01T13:08:29;23.70;;;17.83;;
4676;SDS011;2352;48.180;11.478;2023-03-01T13:11:40;20.43;;;17.83;;
4676;SDS011;2352;48.180;11.478;2023-03-01T13:14:45;19.13;;;17.20;;
4676;SDS011;2352;48.180;11.478;2023-03-01T13:17:49;21.73;;;17.63;;
4676;SDS011;2352;48.180;11.478;2023-03-01T13:20:53;19.63;;;17.57;;
4676;SDS011;2352;48.180;11.478;2023-03-01T13:23:59;19.63;;;17.63;;
4676;SDS011;2352;48.180;11.478;2023-03-01T13:27:09;17.67;;;15.87;;
4676;SDS011;2352;48.180;11.478;2023-03-01T13:30:39;20.73;;;18.60;;
4676;SDS011;2352;48.180;11.478;2023-03-01T13:33:44;19.93;;;18.03;;
4676;SDS011;2352;48.180;11.478;2023-03-01T13:36:48;20.80;;;18.60;;
4676;SDS011;2352;48.180;11.478;2023-03-01T13:39:53;19.33;;;17.33;;
4676;SDS011;2352;48.180;11.478;2023-03-01T13:42:56;19.70;;;17.73;;
4676;SDS011;2352;48.180;11.478;2023-03-01T13:46:10;19.20;;;17.47;;
4676;SDS011;2352;48.180;11.478;2023-03-01T13:49:19;21.80;;;17.70;;
4676;SDS011;2352;48.180;11.478;2023-03-01T13:52:32;27.27;;;19.63;;
4676;SDS011;2352;48.180;11.478;2023-03-01T13:55:42;17.73;;;16.03;;
4676;SDS011;2352;48.180;11.478;2023-03-01T13:58:48;18.07;;;16.30;;
4676;SDS011;2352;48.180;11.478;2023-03-01T14:01:55;17.87;;;16.27;;
4676;SDS011;2352;48.180;11.478;2023-03-01T14:04:59;17.30;;;15.70;;
4676;SDS011;2352;48.180;11.478;2023-03-01T14:08:03;19.47;;;17.57;;
4676;SDS011;2352;48.180;11.478;2023-03-01T14:14:45;19.00;;;17.00;;
4676;SDS011;2352;48.180;11.478;2023-03-01T14:17:55;18.33;;;16.43;;
4676;SDS011;2352;48.180;11.478;2023-03-01T14:21:07;18.83;;;16.87;;
4676;SDS011;2352;48.180;11.478;2023-03-01T14:24:17;19.50;;;17.50;;
4676;SDS011;2352;48.180;11.478;2023-03-01T14:27:24;19.07;;;17.33;;
4676;SDS011;2352;48.180;11.478;2023-03-01T14:30:31;18.63;;;16.83;;
4676;SDS011;2352;48.180;11.478;2023-03-01T14:33:39;17.73;;;16.07;;
4676;SDS011;2352;48.180;11.478;2023-03-01T14:36:43;19.17;;;17.13;;
4676;SDS011;2352;48.180;11.478;2023-03-01T14:39:46;19.43;;;17.60;;
4676;SDS011;2352;48.180;11.478;2023-03-01T14:42:50;17.37;;;15.43;;
4676;SDS011;2352;48.180;11.478;2023-03-01T14:45:56;18.17;;;16.47;;
4676;SDS011;2352;48.180;11.478;2023-03-01T14:49:01;16.30;;;14.37;;
4676;SDS011;2352;48.180;11.478;2023-03-01T14:52:06;18.43;;;16.63;;
4676;SDS011;2352;48.180;11.478;2023-03-01T14:55:20;17.57;;;15.83;;
4676;SDS011;2352;48.180;11.478;2023-03-01T14:58:28;18.63;;;16.83;;
4676;SDS011;2352;48.180;11.478;2023-03-01T15:01:34;17.17;;;15.13;;
4676;SDS011;2352;48.180;11.478;2023-03-01T15:04:38;15.43;;;13.97;;
4676;SDS011;2352;48.180;11.478;2023-03-01T15:07:43;16.93;;;15.33;;
4676;SDS011;2352;48.180;11.478;2023-03-01T15:10:57;16.53;;;14.83;;
4676;SDS011;2352;48.180;11.478;2023-03-01T15:14:05;17.23;;;15.53;;
4676;SDS011;2352;48.180;11.478;2023-03-01T15:17:52;15.80;;;13.43;;
4676;SDS011;2352;48.180;11.478;2023-03-01T15:21:04;15.33;;;13.83;;
4676;SDS011;2352;48.180;11.478;2023-03-01T15:24:16;15.20;;;13.77;;
4676;SDS011;2352;48.180;11.478;2023-03-01T15:27:23;15.33;;;13.80;;
4676;SDS011;2352;48.180;11.478;2023-03-01T15:30:30;16.10;;;14.40;;
4676;SDS011;2352;48.180;11.478;2023-03-01T15:33:38;13.97;;;12.83;;
4676;SDS011;2352;48.180;11.478;2023-03-01T15:36:48;16.03;;;14.43;;
4676;SDS011;2352;48.180;11.478;2023-03-01T15:39:53;16.30;;;14.63;;
4676;SDS011;2352;48.180;11.478;2023-03-01T15:42:56;14.83;;;13.57;;
4676;SDS011;2352;48.180;11.478;2023-03-01T15:46:01;18.90;;;14.67;;
4676;SDS011;2352;48.180;11.478;2023-03-01T15:49:04;14.83;;;13.33;;
4676;SDS011;2352;48.180;11.478;2023-03-01T15:52:22;15.40;;;13.70;;
4676;SDS011;2352;48.180;11.478;2023-03-01T15:55:30;15.60;;;14.00;;
4676;SDS011;2352;48.180;11.478;2023-03-01T15:58:34;14.27;;;12.67;;
4676;SDS011;2352;48.180;11.478;2023-03-01T16:01:38;15.40;;;13.93;;
4676;SDS011;2352;48.180;11.478;2023-03-01T16:04:41;16.50;;;13.23;;
4676;SDS011;2352;48.180;11.478;2023-03-01T16:07:44;17.50;;;14.87;;
4676;SDS011;2352;48.180;11.478;2023-03-01T16:10:48;16.70;;;14.70;;
4676;SDS011;2352;48.180;11.478;2023-03-01T16:13:52;14.53;;;13.17;;
4676;SDS011;2352;48.180;11.478;2023-03-01T16:16:57;16.10;;;14.70;;
4676;SDS011;2352;48.180;11.478;2023-03-01T16:20:00;17.03;;;13.83;;
4676;SDS011;2352;48.180;11.478;2023-03-01T16:23:03;15.77;;;13.83;;
4676;SDS011;2352;48.180;11.478;2023-03-01T16:26:08;14.23;;;12.83;;
4676;SDS011;2352;48.180;11.478;2023-03-01T16:29:11;13.90;;;12.50;;
4676;SDS011;2352;48.180;11.478;2023-03-01T16:32:17;14.57;;;13.07;;
4676;SDS011;2352;48.180;11.478;2023-03-01T16:35:20;14.53;;;13.17;;
4676;SDS011;2352;48.180;11.478;2023-03-01T16:38:24;17.33;;;13.40;;
4676;SDS011;2352;48.180;11.478;2023-03-01T16:41:27;17.60;;;14.17;;
4676;SDS011;2352;48.180;11.478;2023-03-01T16:44:31;16.77;;;13.93;;
4676;SDS011;2352;48.180;11.478;2023-03-01T16:47:35;16.73;;;14.97;;
4676;SDS011;2352;48.180;11.478;2023-03-01T16:50:38;20.90;;;15.70;;
4676;SDS011;2352;48.180;11.478;2023-03-01T16:53:41;21.70;;;15.60;;
4676;SDS011;2352;48.180;11.478;2023-03-01T16:56:47;24.00;;;17.20;;
4676;SDS011;2352;48.180;11.478;2023-03-01T16:59:50;18.67;;;16.33;;
4676;SDS011;2352;48.180;11.478;2023-03-01T17:02:55;19.63;;;17.37;;
4676;SDS011;2352;48.180;11.478;2023-03-01T17:06:00;22.90;;;17.20;;
4676;SDS011;2352;48.180;11.478;2023-03-01T17:09:05;22.23;;;16.00;;
4676;SDS011;2352;48.180;11.478;2023-03-01T17:12:08;23.77;;;16.57;;
4676;SDS011;2352;48.180;11.478;2023-03-01T17:15:13;22.83;;;17.57;;
4676;SDS011;2352;48.180;11.478;2023-03-01T17:18:17;20.17;;;15.77;;
4676;SDS011;2352;48.180;11.478;2023-03-01T17:21:20;17.33;;;15.60;;
4676;SDS011;2352;48.180;11.478;2023-03-01T17:24:23;20.93;;;16.67;;
4676;SDS011;2352;48.180;11.478;2023-03-01T17:27:26;18.30;;;16.23;;
4676;SDS011;2352;48.180;11.478;2023-03-01T17:30:29;23.07;;;17.20;;
4676;SDS011;2352;48.180;11.478;2023-03-01T17:33:33;18.90;;;16.90;;
4676;SDS011;2352;48.180;11.478;2023-03-01T17:36:37;19.37;;;17.10;;
4676;SDS011;2352;48.180;11.478;2023-03-01T17:39:44;21.20;;;15.73;;
4676;SDS011;2352;48.180;11.478;2023-03-01T17:42:47;21.43;;;16.43;;
4676;SDS011;2352;48.180;11.478;2023-03-01T17:45:50;22.10;;;17.47;;
4676;SDS011;2352;48.180;11.478;2023-03-01T17:48:54;18.40;;;15.90;;
4676;SDS011;2352;48.180;11.478;2023-03-01T17:51:57;17.97;;;15.83;;
4676;SDS011;2352;48.180;11.478;2023-03-01T17:55:00;28.30;;;16.90;;
4676;SDS011;2352;48.180;11.478;2023-03-01T17:58:03;17.50;;;13.80;;
4676;SDS011;2352;48.180;11.478;2023-03-01T18:01:11;18.63;;;12.27;;
4676;SDS011;2352;48.180;11.478;2023-03-01T18:04:16;12.70;;;11.50;;
4676;SDS011;2352;48.180;11.478;2023-03-01T18:07:21;14.50;;;12.60;;
4676;SDS011;2352;48.180;11.478;2023-03-01T18:10:24;13.57;;;12.20;;
4676;SDS011;2352;48.180;11.478;2023-03-01T18:13:27;13.83;;;12.70;;
4676;SDS011;2352;48.180;11.478;2023-03-01T18:16:29;13.33;;;12.07;;
4676;SDS011;2352;48.180;11.478;2023-03-01T18:19:36;16.10;;;14.50;;
4676;SDS011;2352;48.180;11.478;2023-03-01T18:22:41;16.57;;;14.27;;
4676;SDS011;2352;48.180;11.478;2023-03-01T18:25:44;16.33;;;14.73;;
4676;SDS011;2352;48.180;11.478;2023-03-01T18:28:47;17.33;;;12.90;;
4676;SDS011;2352;48.180;11.478;2023-03-01T18:31:51;17.03;;;14.80;;